Time;durP1;ratioP1;P1;durP2;ratioP2;P2;SDS_P1;SDS_P2;PMS_P1;PMS_P2;Temp;Humidity;BMP_temperature;BMP_pressure;BME280_temperature;BME280_humidity;BME280_pressure;Samples;Min_cycle;Max_cycle;Signal;HPM_P1;HPM_P2
2022/06/03 00:00:09;;;;;;;3.78;2.40;;;;;;;12.51;76.03;101114.41;688609;28;1255;-42
2022/06/03 00:00:57;;;;;;;3.35;2.40;;;;;;;12.54;75.42;101117.00;690140;28;1087;-43
2022/06/03 00:01:41;;;;;;;4.20;2.50;;;;;;;12.58;76.58;101118.72;686656;28;1465;-45
2022/06/03 00:02:20;;;;;;;3.50;2.50;;;;;;;12.63;75.84;101109.97;688870;28;4379;-44
2022/06/03 00:02:42;;;;;;;3.63;2.50;;;;;;;12.65;74.83;101110.84;687487;28;1271;-43
2022/06/03 00:03:24;;;;;;;4.05;2.63;;;;;;;12.70;73.81;101111.69;687253;28;1193;-42
2022/06/03 00:03:59;;;;;;;3.67;2.30;;;;;;;12.72;74.31;101107.28;686717;28;1321;-43
2022/06/03 00:04:28;;;;;;;4.13;2.30;;;;;;;12.73;75.66;101104.66;684252;28;1362;-42
2022/06/03 00:05:04;;;;;;;3.45;2.45;;;;;;;12.78;75.26;101104.66;684727;28;1238;-42
2022/06/03 00:05:43;;;;;;;3.50;2.40;;;;;;;12.74;75.96;101102.91;685606;28;4838;-42
2022/06/03 00:06:29;;;;;;;3.08;2.20;;;;;;;12.75;75.11;101112.50;685278;28;1291;-42
2022/06/03 00:07:08;;;;;;;3.40;2.30;;;;;;;12.71;75.95;101110.78;687001;28;1695;-42
2022/06/03 00:07:37;;;;;;;4.10;2.38;;;;;;;12.69;75.97;101102.06;684043;28;1295;-42
2022/06/03 00:08:23;;;;;;;3.55;2.47;;;;;;;12.67;75.29;101103.81;681780;28;4531;-42
2022/06/03 00:09:02;;;;;;;3.65;2.45;;;;;;;12.76;74.08;101101.13;686596;28;1265;-42
2022/06/03 00:10:06;;;;;;;4.30;2.38;;;;;;;12.89;74.32;101099.28;686369;28;1303;-42
2022/06/03 00:10:42;;;;;;;4.18;2.30;;;;;;;12.90;72.38;101101.94;687362;28;2113;-42
2022/06/03 00:11:08;;;;;;;3.72;2.38;;;;;;;12.89;73.67;101102.81;687689;28;4315;-42
2022/06/03 00:11:41;;;;;;;3.50;2.30;;;;;;;12.90;72.91;101103.66;691420;28;1302;-44
2022/06/03 00:12:17;;;;;;;3.30;2.60;;;;;;;12.87;74.47;101099.31;689388;28;1298;-43
2022/06/03 00:12:50;;;;;;;3.55;2.30;;;;;;;12.94;74.31;101094.88;692757;28;1491;-42
2022/06/03 00:13:43;;;;;;;5.40;2.47;;;;;;;12.93;73.05;101104.53;691757;28;2029;-43
2022/06/03 00:14:23;;;;;;;2.92;2.20;;;;;;;12.89;73.65;101101.91;692103;28;4297;-42
2022/06/03 00:15:03;;;;;;;3.50;2.40;;;;;;;12.85;74.00;101105.44;691895;28;1258;-42
2022/06/03 00:16:05;;;;;;;3.47;2.35;;;;;;;12.87;74.59;101109.81;693419;28;1294;-42
2022/06/03 00:16:52;;;;;;;3.47;2.38;;;;;;;12.95;72.19;101107.13;690109;28;1719;-42
2022/06/03 00:17:51;;;;;;;3.50;2.40;;;;;;;12.97;72.65;101105.34;690667;28;4828;-44
2022/06/03 00:18:21;;;;;;;3.40;2.10;;;;;;;13.02;72.50;101111.44;689323;28;1190;-42
2022/06/03 00:19:29;;;;;;;3.90;2.42;;;;;;;13.03;71.24;101107.06;690212;28;1783;-42
2022/06/03 00:20:21;;;;;;;3.60;2.30;;;;;;;13.13;70.83;101106.13;681745;28;1312;-45
2022/06/03 00:21:09;;;;;;;3.10;2.28;;;;;;;13.18;71.87;101109.59;681202;28;4829;-42
2022/06/03 00:21:42;;;;;;;3.55;2.30;;;;;;;13.13;71.51;101106.13;682527;28;1349;-43
2022/06/03 00:22:30;;;;;;;3.13;2.20;;;;;;;13.09;71.69;101104.41;680263;28;1715;-46
2022/06/03 00:23:14;;;;;;;3.60;2.53;;;;;;;13.10;73.41;101111.41;679365;28;1458;-42
2022/06/03 00:23:58;;;;;;;3.60;2.40;;;;;;;13.12;72.76;101099.13;680515;28;6599;-43
2022/06/03 00:24:45;;;;;;;3.70;2.42;;;;;;;13.11;71.22;101098.25;682591;28;1590;-43
2022/06/03 00:25:24;;;;;;;3.30;2.50;;;;;;;13.14;70.70;101102.63;677180;29;1379;-44
2022/06/03 00:25:55;;;;;;;3.30;2.50;;;;;;;13.13;71.86;101106.13;681410;28;1311;-42
2022/06/03 00:26:33;;;;;;;4.18;2.40;;;;;;;13.11;71.80;101097.38;686006;28;4830;-43
2022/06/03 00:27:42;;;;;;;3.72;2.35;;;;;;;13.05;72.08;101102.69;688248;28;1347;-43
2022/06/03 00:28:14;;;;;;;3.13;2.22;;;;;;;12.98;72.55;101101.00;683280;28;1271;-42
2022/06/03 00:29:05;;;;;;;4.03;2.47;;;;;;;12.92;72.80;101092.28;689650;28;1868;-43
2022/06/03 00:29:41;;;;;;;3.80;2.17;;;;;;;12.95;72.93;101097.50;690152;28;4749;-44
2022/06/03 00:30:28;;;;;;;3.97;2.40;;;;;;;12.91;73.61;101100.16;689585;28;1604;-43
2022/06/03 00:31:23;;;;;;;3.75;2.50;;;;;;;12.90;72.41;101103.66;681438;28;1418;-42
2022/06/03 00:31:47;;;;;;;4.43;2.42;;;;;;;12.92;72.16;101104.53;688755;28;1373;-43
2022/06/03 00:32:35;;;;;;;3.40;2.35;;;;;;;12.95;71.53;101102.75;689703;28;4347;-42
2022/06/03 00:33:11;;;;;;;3.30;2.30;;;;;;;12.99;72.65;101100.09;689517;28;1533;-43
2022/06/03 00:33:45;;;;;;;3.63;2.22;;;;;;;12.97;71.93;101110.59;689909;28;1306;-42
2022/06/03 00:34:30;;;;;;;3.88;2.42;;;;;;;12.98;71.69;101101.84;689963;28;1334;-43
2022/06/03 00:35:03;;;;;;;4.28;2.30;;;;;;;12.97;72.28;101110.59;690739;28;1439;-44
2022/06/03 00:35:47;;;;;;;3.50;2.30;;;;;;;12.97;72.23;101102.72;689777;28;4939;-42
2022/06/03 00:36:37;;;;;;;3.03;2.22;;;;;;;12.94;71.76;101106.28;688680;28;1254;-43
2022/06/03 00:37:10;;;;;;;3.47;2.40;;;;;;;12.90;72.16;101109.81;686394;28;1524;-42
2022/06/03 00:38:24;;;;;;;4.15;2.33;;;;;;;12.90;72.38;101109.81;689624;28;1682;-43
2022/06/03 00:38:56;;;;;;;3.40;2.30;;;;;;;12.98;73.13;101106.25;681138;28;4904;-43
2022/06/03 00:39:38;;;;;;;3.45;2.33;;;;;;;12.93;72.32;101109.78;682634;28;1421;-42
2022/06/03 00:40:09;;;;;;;5.57;2.40;;;;;;;12.95;72.52;101108.00;678845;28;1628;-43
2022/06/03 00:40:37;;;;;;;3.60;2.25;;;;;;;12.97;72.99;101102.72;679966;29;1289;-42
2022/06/03 00:41:00;;;;;;;4.22;2.63;;;;;;;12.94;72.58;101101.03;680071;28;1837;-43
2022/06/03 00:42:02;;;;;;;4.05;2.30;;;;;;;12.93;72.89;101099.28;679529;29;1362;-43
2022/06/03 00:43:19;;;;;;;3.72;2.30;;;;;;;13.00;71.54;101096.59;683750;28;1386;-43
2022/06/03 00:43:59;;;;;;;3.20;2.20;;;;;;;13.04;70.58;101099.19;677702;29;1315;-43
2022/06/03 00:45:00;;;;;;;3.60;2.30;;;;;;;13.11;71.46;101097.38;669574;29;4844;-43
2022/06/03 00:45:26;;;;;;;3.83;2.30;;;;;;;13.10;70.61;101100.91;672557;29;2465;-41
2022/06/03 00:46:16;;;;;;;3.42;2.45;;;;;;;13.08;70.17;101097.41;673223;29;1381;-42
2022/06/03 00:47:08;;;;;;;3.47;2.17;;;;;;;13.15;70.37;101103.47;677552;29;1486;-42
2022/06/03 00:47:57;;;;;;;3.70;2.60;;;;;;;13.19;70.60;101095.56;678048;29;5028;-42
2022/06/03 00:48:54;;;;;;;4.18;2.30;;;;;;;13.17;71.80;101096.47;677938;28;1578;-42
2022/06/03 00:49:48;;;;;;;3.70;2.40;;;;;;;13.11;71.14;101097.38;685530;28;1276;-42
2022/06/03 00:50:17;;;;;;;4.32;2.40;;;;;;;13.11;71.17;101097.38;689780;28;4610;-43
2022/06/03 00:50:51;;;;;;;3.75;2.20;;;;;;;13.09;71.67;101099.16;689213;28;1422;-44
2022/06/03 00:51:14;;;;;;;3.97;2.30;;;;;;;13.04;70.95;101088.69;688853;28;1286;-42
2022/06/03 00:51:56;;;;;;;3.65;2.30;;;;;;;13.05;70.85;101092.19;689874;28;1291;-43
2022/06/03 00:52:19;;;;;;;3.67;2.28;;;;;;;13.05;70.27;101089.56;688883;28;1643;-42
2022/06/03 00:53:01;;;;;;;4.38;2.40;;;;;;;13.13;69.82;101095.63;688970;28;1219;-43
2022/06/03 00:53:33;;;;;;;3.60;2.20;;;;;;;13.16;70.23;101087.72;688533;28;4964;-42
2022/06/03 00:54:15;;;;;;;3.78;2.35;;;;;;;13.12;69.55;101093.88;689885;28;1295;-44
2022/06/03 00:55:12;;;;;;;3.08;2.17;;;;;;;13.11;70.75;101090.38;689444;28;1864;-43
2022/06/03 00:55:37;;;;;;;4.25;2.40;;;;;;;13.14;71.76;101089.50;690876;28;1575;-43
2022/06/03 00:56:15;;;;;;;3.47;2.30;;;;;;;13.09;71.31;101088.66;690199;28;4505;-42
2022/06/03 00:56:41;;;;;;;4.10;2.35;;;;;;;13.07;71.72;101087.78;691215;28;1516;-43
2022/06/03 00:57:06;;;;;;;3.85;2.38;;;;;;;13.02;71.56;101086.97;687861;28;1285;-42
2022/06/03 00:57:51;;;;;;;4.00;2.30;;;;;;;13.06;70.65;101088.69;689206;28;1591;-42
2022/06/03 00:58:21;;;;;;;3.20;2.10;;;;;;;12.95;73.22;101084.38;687638;28;1457;-43
2022/06/03 00:58:44;;;;;;;3.40;2.13;;;;;;;12.95;73.34;101091.41;686577;28;1346;-43
2022/06/03 00:59:13;;;;;;;3.35;2.28;;;;;;;12.92;72.49;101092.28;689957;28;4396;-43
2022/06/03 00:59:53;;;;;;;2.88;1.90;;;;;;;12.93;72.10;101088.78;690929;28;1512;-44
2022/06/03 01:00:22;;;;;;;3.40;2.30;;;;;;;13.06;71.06;101089.53;689282;28;1397;-42
2022/06/03 01:01:12;;;;;;;3.10;2.20;;;;;;;13.10;70.69;101087.78;689481;28;1215;-42
2022/06/03 01:02:10;;;;;;;3.40;2.20;;;;;;;13.01;71.33;101091.31;690902;28;1480;-44
2022/06/03 01:03:11;;;;;;;3.30;2.20;;;;;;;12.94;72.81;101084.41;683611;28;6309;-43
2022/06/03 01:04:09;;;;;;;3.75;2.35;;;;;;;12.86;72.61;101081.84;685854;28;1350;-43
2022/06/03 01:04:38;;;;;;;2.65;2.00;;;;;;;12.83;71.85;101086.22;685488;28;1584;-42
2022/06/03 01:05:02;;;;;;;3.05;2.10;;;;;;;12.81;72.31;101087.97;685294;28;5297;-43
2022/06/03 01:05:29;;;;;;;2.72;2.03;;;;;;;12.85;71.73;101087.06;687164;28;1350;-42
2022/06/03 01:05:52;;;;;;;3.20;2.20;;;;;;;12.88;71.31;101080.06;687228;28;1184;-44
2022/06/03 01:06:39;;;;;;;3.92;2.35;;;;;;;12.89;72.99;101081.81;686793;28;1481;-43
2022/06/03 01:07:09;;;;;;;3.30;2.25;;;;;;;12.87;72.62;101082.69;687931;28;1462;-42
2022/06/03 01:08:07;;;;;;;3.30;2.20;;;;;;;12.85;71.54;101089.69;687218;28;1210;-42
2022/06/03 01:08:46;;;;;;;4.47;2.30;;;;;;;12.93;70.91;101085.28;689126;28;4930;-42
2022/06/03 01:09:24;;;;;;;3.17;2.17;;;;;;;12.89;71.12;101076.56;688935;28;1416;-43
2022/06/03 01:09:51;;;;;;;3.38;2.17;;;;;;;13.01;69.82;101077.34;688259;28;1543;-41
2022/06/03 01:10:41;;;;;;;3.28;2.22;;;;;;;12.93;71.80;101078.28;689681;28;1336;-42
2022/06/03 01:11:14;;;;;;;3.10;2.20;;;;;;;12.91;71.95;101079.19;687911;28;4403;-42
2022/06/03 01:12:05;;;;;;;3.25;2.10;;;;;;;12.92;71.95;101078.31;688799;28;1253;-42
2022/06/03 01:12:49;;;;;;;3.20;2.20;;;;;;;12.81;73.03;101077.50;690149;28;1760;-42
2022/06/03 01:13:32;;;;;;;4.97;2.10;;;;;;;12.80;72.56;101084.50;688790;28;1207;-45
2022/06/03 01:14:11;;;;;;;3.22;2.15;;;;;;;12.82;72.62;101079.25;689650;28;4684;-41
2022/06/03 01:14:50;;;;;;;3.50;2.50;;;;;;;12.82;73.20;101074.00;691846;28;1231;-43
2022/06/03 01:15:20;;;;;;;3.20;2.17;;;;;;;12.83;72.89;101081.00;690792;28;1223;-42
2022/06/03 01:15:54;;;;;;;3.58;2.10;;;;;;;12.83;72.56;101081.00;691643;28;1227;-43
2022/06/03 01:16:26;;;;;;;3.88;2.30;;;;;;;12.77;72.04;101087.16;691153;28;1380;-42
2022/06/03 01:16:59;;;;;;;3.33;2.10;;;;;;;12.70;72.36;101081.06;690120;28;1653;-43
2022/06/03 01:17:35;;;;;;;4.32;2.40;;;;;;;12.64;72.96;101082.88;692279;28;5062;-44
2022/06/03 01:18:13;;;;;;;3.40;2.40;;;;;;;12.62;73.21;101080.25;691219;28;1480;-42
2022/06/03 01:19:29;;;;;;;3.45;2.60;;;;;;;12.67;72.28;101088.06;691360;28;1349;-42
2022/06/03 01:20:02;;;;;;;3.17;2.40;;;;;;;12.70;72.67;101091.56;677618;28;1578;-41
2022/06/03 01:20:52;;;;;;;3.78;2.30;;;;;;;12.69;72.62;101091.56;685536;28;5013;-42
2022/06/03 01:21:12;;;;;;;3.30;2.20;;;;;;;12.64;71.45;101081.13;688971;28;1353;-43
2022/06/03 01:21:36;;;;;;;3.17;2.10;;;;;;;12.63;71.68;101088.97;689684;28;1492;-43
2022/06/03 01:22:30;;;;;;;4.57;2.13;;;;;;;12.67;74.11;101095.94;690653;28;1354;-43
2022/06/03 01:23:27;;;;;;;3.05;2.03;;;;;;;12.57;73.07;101085.53;689601;28;1302;-43
2022/06/03 01:24:08;;;;;;;3.40;2.13;;;;;;;12.60;73.15;101085.50;689706;28;6114;-44
2022/06/03 01:24:42;;;;;;;3.65;2.20;;;;;;;12.58;72.76;101076.75;686473;28;2367;-43
2022/06/03 01:25:38;;;;;;;3.10;2.10;;;;;;;12.54;73.39;101087.28;686867;28;1429;-42
2022/06/03 01:26:30;;;;;;;3.28;2.45;;;;;;;12.53;71.95;101088.16;689269;28;1266;-44
2022/06/03 01:26:53;;;;;;;4.47;2.17;;;;;;;12.52;72.90;101082.06;691239;28;2005;-42
2022/06/03 01:27:40;;;;;;;3.25;2.10;;;;;;;12.48;74.17;101080.34;688941;28;1588;-42
2022/06/03 01:28:35;;;;;;;3.55;2.10;;;;;;;12.50;72.98;101083.84;689779;28;1722;-42
2022/06/03 01:29:14;;;;;;;3.10;2.20;;;;;;;12.57;71.37;101089.91;690623;28;4412;-45
2022/06/03 01:29:58;;;;;;;3.42;2.15;;;;;;;12.57;72.52;101082.91;690841;28;3967;-42
2022/06/03 01:30:41;;;;;;;2.95;2.20;;;;;;;12.56;72.50;101088.19;688781;28;1033;-42
2022/06/03 01:31:08;;;;;;;3.30;2.20;;;;;;;12.54;71.46;101074.19;685418;28;1346;-41
2022/06/03 01:31:56;;;;;;;3.20;2.20;;;;;;;12.52;72.32;101082.06;688924;28;1849;-42
2022/06/03 01:32:29;;;;;;;2.97;2.13;;;;;;;12.50;71.07;101083.84;688240;28;4889;-43
2022/06/03 01:33:01;;;;;;;2.78;2.13;;;;;;;12.51;71.45;101080.31;689520;28;1385;-42
2022/06/03 01:33:40;;;;;;;3.40;2.20;;;;;;;12.52;71.46;101079.44;688318;28;1922;-43
2022/06/03 01:34:51;;;;;;;3.47;2.30;;;;;;;12.51;71.54;101085.56;689169;28;1214;-43
2022/06/03 01:35:32;;;;;;;3.28;2.30;;;;;;;12.48;72.05;101079.47;679396;28;4524;-42
2022/06/03 01:36:10;;;;;;;3.20;2.30;;;;;;;12.44;73.17;101084.72;678371;28;3245;-42
2022/06/03 01:37:03;;;;;;;3.45;2.30;;;;;;;12.44;72.35;101083.84;684995;28;2192;-43
2022/06/03 01:37:31;;;;;;;3.50;2.20;;;;;;;12.43;72.41;101087.34;679807;28;1479;-42
2022/06/03 01:38:00;;;;;;;3.63;2.33;;;;;;;12.42;73.61;101086.50;678842;28;917;-44
2022/06/03 01:38:26;;;;;;;3.85;2.28;;;;;;;12.42;73.40;101089.13;680124;28;4828;-43
2022/06/03 01:39:01;;;;;;;3.58;2.22;;;;;;;12.40;73.08;101090.00;689036;28;1327;-42
2022/06/03 01:39:40;;;;;;;4.32;2.40;;;;;;;12.37;73.07;101083.00;690974;28;1429;-44
2022/06/03 01:40:13;;;;;;;3.85;2.28;;;;;;;12.34;73.16;101088.28;691555;28;1440;-42
2022/06/03 01:40:52;;;;;;;3.90;2.47;;;;;;;12.34;73.38;101088.28;692612;28;1330;-42
2022/06/03 01:41:43;;;;;;;3.50;2.40;;;;;;;12.31;73.35;101084.78;691528;28;6203;-43
2022/06/03 01:42:28;;;;;;;3.85;2.38;;;;;;;12.25;74.15;101088.31;691791;28;1284;-43
2022/06/03 01:42:48;;;;;;;3.83;2.20;;;;;;;12.27;73.43;101082.19;692259;28;1337;-43
2022/06/03 01:43:31;;;;;;;3.97;2.40;;;;;;;12.29;73.74;101086.56;690070;28;1325;-43
2022/06/03 01:44:02;;;;;;;4.47;2.40;;;;;;;12.25;73.36;101083.97;688349;28;1374;-44
2022/06/03 01:45:00;;;;;;;3.90;2.50;;;;;;;12.20;74.19;101085.72;685296;28;4765;-43
2022/06/03 01:45:48;;;;;;;4.00;2.30;;;;;;;12.17;73.47;101088.38;688789;28;1398;-42
2022/06/03 01:46:38;;;;;;;4.13;2.38;;;;;;;12.18;75.27;101091.84;689767;28;1152;-43
2022/06/03 01:47:37;;;;;;;3.90;2.30;;;;;;;12.18;75.43;101087.47;687784;28;4798;-42
2022/06/03 01:48:04;;;;;;;3.40;2.10;;;;;;;12.14;75.19;101080.50;686562;28;1224;-42
2022/06/03 01:48:46;;;;;;;4.28;2.33;;;;;;;12.14;74.77;101090.97;687482;28;1297;-43
2022/06/03 01:49:48;;;;;;;3.63;2.40;;;;;;;12.10;77.67;101089.25;686915;28;1262;-42
2022/06/03 01:50:09;;;;;;;4.97;2.30;;;;;;;12.07;76.09;101082.31;678908;28;4479;-42
2022/06/03 01:50:53;;;;;;;3.30;2.30;;;;;;;12.05;77.01;101085.81;680027;28;1146;-42
2022/06/03 01:51:26;;;;;;;4.25;2.47;;;;;;;12.00;74.75;101088.44;690905;28;1305;-43
2022/06/03 01:51:52;;;;;;;3.83;2.65;;;;;;;11.96;74.90;101081.44;690815;28;1349;-42
2022/06/03 01:52:40;;;;;;;5.05;3.42;;;;;;;11.97;75.19;101083.19;690252;28;1957;-42
2022/06/03 01:53:22;;;;;;;4.20;3.30;;;;;;;11.99;74.92;101083.19;690677;28;4444;-43
2022/06/03 01:54:30;;;;;;;4.85;3.30;;;;;;;11.92;75.31;101080.56;689762;28;1210;-42
2022/06/03 01:55:15;;;;;;;4.97;2.90;;;;;;;11.91;74.67;101081.44;689239;28;1294;-42
2022/06/03 01:56:01;;;;;;;3.80;2.50;;;;;;;11.91;75.39;101078.81;689712;28;1539;-42
2022/06/03 01:56:30;;;;;;;3.60;2.75;;;;;;;11.89;77.05;101083.22;688117;28;4910;-42
2022/06/03 01:57:12;;;;;;;4.15;3.08;;;;;;;11.87;76.88;101084.09;690306;28;1636;-43
2022/06/03 01:58:09;;;;;;;3.78;2.78;;;;;;;11.85;76.10;101083.22;689478;28;1266;-42
2022/06/03 01:59:01;;;;;;;4.10;3.10;;;;;;;11.80;76.10;101083.25;682519;28;1370;-43
2022/06/03 01:59:40;;;;;;;4.75;2.90;;;;;;;11.77;76.88;101085.88;681940;28;4936;-42
2022/06/03 02:00:13;;;;;;;5.25;3.30;;;;;;;11.74;76.46;101080.63;682904;28;1233;-43
2022/06/03 02:00:38;;;;;;;4.60;3.70;;;;;;;11.74;77.01;101083.25;689104;28;1108;-43
2022/06/03 02:01:28;;;;;;;5.65;3.55;;;;;;;11.73;77.20;101084.13;689964;28;1486;-43
2022/06/03 02:02:19;;;;;;;4.45;3.42;;;;;;;11.72;77.51;101087.63;689727;28;1337;-43
2022/06/03 02:02:40;;;;;;;5.32;3.83;;;;;;;11.71;77.34;101080.63;688711;28;6275;-43
2022/06/03 02:03:15;;;;;;;4.97;3.97;;;;;;;11.67;77.04;101078.91;690654;28;1206;-43
2022/06/03 02:04:03;;;;;;;5.32;3.67;;;;;;;11.63;76.77;101082.41;690735;28;1168;-43
2022/06/03 02:05:01;;;;;;;4.95;3.58;;;;;;;11.58;80.93;101075.44;690319;28;1230;-43
2022/06/03 02:05:50;;;;;;;4.20;3.40;;;;;;;11.57;79.52;101076.31;689725;28;4674;-44
2022/06/03 02:06:50;;;;;;;4.88;3.15;;;;;;;11.57;80.29;101076.31;690901;28;1290;-43
2022/06/03 02:07:16;;;;;;;4.45;3.28;;;;;;;11.55;80.11;101069.34;681819;28;1240;-43
2022/06/03 02:07:48;;;;;;;4.50;3.17;;;;;;;11.54;79.46;101072.84;682206;28;995;-42
2022/06/03 02:08:39;;;;;;;4.03;3.03;;;;;;;11.53;79.47;101071.06;686816;28;4487;-43
2022/06/03 02:09:12;;;;;;;4.22;2.92;;;;;;;11.52;79.38;101070.22;687152;28;1308;-42
2022/06/03 02:09:54;;;;;;;3.92;2.70;;;;;;;11.49;78.72;101067.63;690278;28;1745;-44
2022/06/03 02:10:48;;;;;;;4.57;3.00;;;;;;;11.46;79.02;101066.72;690219;28;1227;-42
2022/06/03 02:11:21;;;;;;;4.00;2.80;;;;;;;11.43;78.90;101072.84;690925;28;4428;-42
2022/06/03 02:12:06;;;;;;;4.43;3.00;;;;;;;11.38;79.20;101077.22;689373;28;1478;-43
2022/06/03 02:12:54;;;;;;;4.60;2.80;;;;;;;11.37;82.35;101070.25;689754;28;1781;-42
2022/06/03 02:13:33;;;;;;;4.93;2.90;;;;;;;11.32;81.15;101072.84;690346;28;1906;-42
2022/06/03 02:14:06;;;;;;;4.80;3.03;;;;;;;11.31;81.32;101072.84;691148;28;4660;-44
2022/06/03 02:15:04;;;;;;;5.05;3.03;;;;;;;11.31;81.43;101065.00;693758;28;1376;-43
2022/06/03 02:15:50;;;;;;;4.20;2.67;;;;;;;11.20;80.43;101067.63;692558;28;1118;-43
2022/06/03 02:16:17;;;;;;;6.13;2.60;;;;;;;11.16;81.11;101072.00;691175;28;1410;-42
2022/06/03 02:17:07;;;;;;;4.20;2.78;;;;;;;11.19;81.32;101065.91;690886;28;1444;-42
2022/06/03 02:17:46;;;;;;;4.35;2.80;;;;;;;11.17;80.81;101065.91;690726;28;4964;-43
2022/06/03 02:18:27;;;;;;;5.35;2.50;;;;;;;11.16;80.12;101065.88;689891;28;1276;-42
2022/06/03 02:19:22;;;;;;;5.00;2.80;;;;;;;11.15;81.14;101062.41;691754;28;1294;-42
2022/06/03 02:20:20;;;;;;;4.47;2.70;;;;;;;11.12;81.30;101061.53;686860;28;1853;-42
2022/06/03 02:20:49;;;;;;;4.13;2.60;;;;;;;11.13;81.40;101064.19;686542;28;5433;-42
2022/06/03 02:21:21;;;;;;;4.15;2.70;;;;;;;11.11;80.82;101058.06;688282;28;1137;-42
2022/06/03 02:22:06;;;;;;;4.68;2.47;;;;;;;11.07;82.03;101059.78;689893;28;1033;-42
2022/06/03 02:22:45;;;;;;;5.00;2.92;;;;;;;11.05;82.43;101063.31;690358;28;1573;-41
2022/06/03 02:23:11;;;;;;;3.78;2.50;;;;;;;11.03;83.56;101059.81;689598;28;4498;-43
2022/06/03 02:23:52;;;;;;;5.65;2.50;;;;;;;11.00;81.83;101059.81;689721;28;1184;-42
2022/06/03 02:24:33;;;;;;;3.50;2.50;;;;;;;11.01;82.20;101058.94;689509;28;1317;-44
2022/06/03 02:25:15;;;;;;;4.10;2.60;;;;;;;11.03;82.00;101062.41;689562;28;1562;-43
2022/06/03 02:26:13;;;;;;;3.28;2.45;;;;;;;11.03;81.79;101063.28;688753;28;4125;-43
2022/06/03 02:26:48;;;;;;;3.30;2.42;;;;;;;10.97;82.90;101062.44;685332;28;4787;-43
2022/06/03 02:27:20;;;;;;;4.13;2.60;;;;;;;10.97;82.58;101059.81;684254;28;1121;-43
2022/06/03 02:27:40;;;;;;;4.32;2.50;;;;;;;11.00;83.24;101065.03;686915;28;1702;-44
2022/06/03 02:28:11;;;;;;;4.10;2.50;;;;;;;10.95;82.48;101062.44;690024;28;1273;-43
2022/06/03 02:28:50;;;;;;;3.83;2.40;;;;;;;10.97;83.68;101060.69;689039;28;1083;-43
2022/06/03 02:30:42;;;;;;;3.92;2.58;;;;;;;10.93;83.22;101056.31;690369;28;1550;-42
2022/06/03 02:31:14;;;;;;;4.60;2.53;;;;;;;10.92;82.92;101054.56;690147;28;6929;-42
2022/06/03 02:32:03;;;;;;;4.13;2.38;;;;;;;10.88;83.50;101052.81;688707;28;4720;-42
2022/06/03 02:32:42;;;;;;;3.65;2.63;;;;;;;10.89;82.94;101054.56;690151;28;2048;-43
2022/06/03 02:33:09;;;;;;;3.53;2.50;;;;;;;10.87;83.57;101057.19;688942;28;8187;-42
2022/06/03 02:33:51;;;;;;;4.57;2.65;;;;;;;10.88;83.44;101051.09;690645;28;1985;-43
2022/06/03 02:34:30;;;;;;;4.00;2.50;;;;;;;10.87;82.81;101051.97;690097;28;1259;-44
2022/06/03 02:35:10;;;;;;;3.90;2.40;;;;;;;10.82;82.95;101050.22;688683;28;4906;-46
2022/06/03 02:36:12;;;;;;;3.75;2.40;;;;;;;10.84;82.37;101049.34;689508;28;1223;-43
2022/06/03 02:36:47;;;;;;;5.35;2.50;;;;;;;10.84;83.13;101051.06;683325;28;1302;-42
2022/06/03 02:37:25;;;;;;;3.35;2.47;;;;;;;10.77;83.99;101047.56;683160;28;1276;-42
2022/06/03 02:38:07;;;;;;;4.32;2.60;;;;;;;10.78;83.06;101054.56;690264;28;5030;-43
2022/06/03 02:38:58;;;;;;;3.05;2.30;;;;;;;10.79;83.32;101056.31;690956;28;1199;-42
2022/06/03 02:39:53;;;;;;;4.07;2.40;;;;;;;10.78;83.33;101046.72;692024;28;1519;-43
2022/06/03 02:41:00;;;;;;;3.70;2.65;;;;;;;10.76;84.04;101051.09;690285;28;2698;-43
2022/06/03 02:41:47;;;;;;;3.72;2.40;;;;;;;10.72;84.08;101051.97;686818;28;4953;-42
2022/06/03 02:42:17;;;;;;;4.15;2.53;;;;;;;10.71;84.07;101050.19;688055;28;1615;-43
2022/06/03 02:43:09;;;;;;;3.20;2.33;;;;;;;10.68;84.06;101047.59;689986;28;1314;-43
2022/06/03 02:44:00;;;;;;;3.78;2.50;;;;;;;10.68;84.34;101050.22;690865;28;1255;-42
2022/06/03 02:44:53;;;;;;;4.40;2.50;;;;;;;10.69;84.47;101044.13;689879;28;1192;-43
2022/06/03 02:45:22;;;;;;;3.13;2.28;;;;;;;10.67;84.65;101045.84;683185;28;1378;-43
2022/06/03 02:46:04;;;;;;;4.10;2.42;;;;;;;10.68;85.16;101053.69;686299;28;1292;-42
2022/06/03 02:46:43;;;;;;;4.45;2.50;;;;;;;10.68;85.47;101042.38;691743;28;4431;-43
2022/06/03 02:47:36;;;;;;;3.75;2.45;;;;;;;10.62;84.33;101051.06;691340;28;1341;-42
2022/06/03 02:48:51;;;;;;;3.40;2.50;;;;;;;10.48;85.18;101045.81;691281;28;6943;-44
2022/06/03 02:49:30;;;;;;;3.20;2.45;;;;;;;10.49;85.87;101039.72;684742;28;1369;-43
2022/06/03 02:50:06;;;;;;;4.15;2.30;;;;;;;10.51;85.41;101047.59;686542;28;5357;-43
2022/06/03 02:50:51;;;;;;;4.75;2.60;;;;;;;10.50;87.57;101043.22;690927;28;1291;-43
2022/06/03 02:52:02;;;;;;;4.97;2.60;;;;;;;10.54;85.81;101044.97;688423;28;1265;-42
2022/06/03 02:52:44;;;;;;;3.70;2.47;;;;;;;10.48;85.13;101040.59;679963;28;4461;-43
2022/06/03 02:53:35;;;;;;;3.70;2.50;;;;;;;10.45;84.89;101037.97;689460;28;1235;-43
2022/06/03 02:54:25;;;;;;;4.05;2.80;;;;;;;10.39;85.21;101043.19;688940;28;2164;-43
2022/06/03 02:54:54;;;;;;;3.80;2.45;;;;;;;10.40;88.60;101047.56;692859;28;1280;-43
2022/06/03 02:55:23;;;;;;;3.60;2.70;;;;;;;10.38;88.05;101044.06;692739;28;1157;-42
2022/06/03 02:56:05;;;;;;;5.32;2.50;;;;;;;10.36;87.37;101040.56;688629;28;4834;-43
2022/06/03 02:57:05;;;;;;;3.20;2.35;;;;;;;10.31;86.45;101037.91;691015;28;1186;-44
2022/06/03 02:57:40;;;;;;;2.85;2.17;;;;;;;10.37;86.76;101040.56;679532;28;1213;-43
2022/06/03 02:58:19;;;;;;;3.58;2.55;;;;;;;10.38;86.40;101039.72;679743;29;1368;-42
2022/06/03 02:58:48;;;;;;;3.53;2.60;;;;;;;10.39;86.23;101035.34;679852;28;4890;-42
2022/06/03 02:59:09;;;;;;;3.50;2.47;;;;;;;10.36;87.40;101040.56;679889;28;1220;-42
2022/06/03 03:00:02;;;;;;;3.53;2.40;;;;;;;10.38;86.96;101033.59;686704;28;1147;-44
2022/06/03 03:00:49;;;;;;;3.33;2.40;;;;;;;10.39;87.64;101032.72;688589;28;1210;-43
2022/06/03 03:01:16;;;;;;;3.80;2.40;;;;;;;10.36;86.74;101030.13;684989;28;1139;-42
2022/06/03 03:02:21;;;;;;;3.53;2.47;;;;;;;10.31;86.50;101032.66;688416;28;4726;-43
2022/06/03 03:03:06;;;;;;;4.00;2.47;;;;;;;10.24;87.54;101038.75;680943;28;1392;-43
2022/06/03 03:03:52;;;;;;;3.42;2.58;;;;;;;10.34;88.28;101037.03;680785;28;1192;-42
2022/06/03 03:04:51;;;;;;;4.40;2.47;;;;;;;10.35;88.02;101037.06;685245;28;1158;-42
2022/06/03 03:05:42;;;;;;;4.43;2.60;;;;;;;10.31;88.46;101032.66;684326;28;7500;-42
2022/06/03 03:06:18;;;;;;;3.15;2.33;;;;;;;10.30;90.07;101030.06;690677;28;1425;-42
2022/06/03 03:06:56;;;;;;;3.78;2.58;;;;;;;10.26;87.68;101025.69;687324;28;1477;-42
2022/06/03 03:07:41;;;;;;;3.53;2.45;;;;;;;10.26;87.13;101030.91;686827;28;1540;-43
2022/06/03 03:08:26;;;;;;;3.75;2.65;;;;;;;10.25;89.51;101039.66;686733;28;2432;-43
2022/06/03 03:08:49;;;;;;;4.22;2.40;;;;;;;10.26;87.36;101031.81;689321;28;1299;-42
2022/06/03 03:09:29;;;;;;;4.78;2.60;;;;;;;10.24;86.98;101030.91;687494;28;1727;-43
2022/06/03 03:10:17;;;;;;;3.80;2.60;;;;;;;10.19;88.34;101033.53;686265;28;1216;-43
2022/06/03 03:11:14;;;;;;;3.78;2.72;;;;;;;10.25;87.43;101043.13;689980;28;4889;-43
2022/06/03 03:11:56;;;;;;;4.20;2.75;;;;;;;10.25;87.05;101043.13;688700;28;1295;-43
2022/06/03 03:12:34;;;;;;;4.15;2.53;;;;;;;10.27;86.86;101040.50;685441;28;1468;-43
2022/06/03 03:13:33;;;;;;;4.40;2.47;;;;;;;10.20;86.88;101037.00;685855;28;1321;-43
2022/06/03 03:14:12;;;;;;;3.75;2.50;;;;;;;10.21;89.47;101030.91;676079;29;4981;-42
2022/06/03 03:14:58;;;;;;;4.85;2.75;;;;;;;10.21;88.76;101036.16;687416;28;1604;-43
2022/06/03 03:15:37;;;;;;;4.20;2.58;;;;;;;10.22;88.20;101035.28;691656;28;1638;-43
2022/06/03 03:16:36;;;;;;;3.88;2.67;;;;;;;10.19;88.58;101038.75;688610;28;1469;-42
2022/06/03 03:17:29;;;;;;;4.90;2.70;;;;;;;10.20;88.53;101040.50;687622;28;5028;-44
2022/06/03 03:18:11;;;;;;;3.75;2.65;;;;;;;10.21;90.53;101042.22;689462;28;1412;-43
2022/06/03 03:18:44;;;;;;;3.60;2.60;;;;;;;10.23;89.51;101044.84;690713;28;1448;-44
2022/06/03 03:19:24;;;;;;;4.63;2.85;;;;;;;10.19;88.22;101054.44;690236;28;1286;-42
2022/06/03 03:20:03;;;;;;;5.15;2.80;;;;;;;10.18;87.46;101047.47;688766;28;5082;-43